Open Full Screen Window  High Contrast Mode
July 20, 2018 4:51 AM EDT
Weather Information
Wind Direction
  ---
Wind Speed
  00 kt (0 mph)
Wind Gust
  00 kt (0 mph)
Altimeter
29.92 in
Visibility
10 SM
Temperature
18° C
64° F
Dewpoint
15° C
59° F
Humidity
83%
1hr Rain Fall
00.00 in.
24hr Rain Fall
00.00 in.
Sky Condition
Clear
VFR

METAR KMRT 200851Z AUTO 00000KT 10SM CLR 18/15 A2992 RMK AO2 T01750154

FAA Disclaimer: The data displayed is for advisory purposes only and is not to be used for flight planning or operations.